UKV2273 LIEE-EGCC
Flight info
| Callsign | UKV2273 |
|---|---|
| Flight time | N/A |
| Altitude | 34000 |
| Route | CAR DCT AXCIS |
| Aircraft | B738/M-SDE2E3FGHIRWXY/LB1 |
Departure
| Time | N/A |
|---|---|
| Airport | Cagliari Elmas Airport (LIEE) |
Arrival
| Time | 2026-05-06 04:08 |
|---|---|
| Airport | Manchester Airport (EGCC) |
| Time | Latitude | Longitude | Altitude | Speed | Heading |
|---|---|---|---|---|---|
| 2026-05-06 03:02 | 47.31547 | 2.75239 | 37836 ft | 469 kts | 324° |
| 2026-05-06 03:03 | 47.34268 | 2.72588 | 37832 ft | 468 kts | 324° |
| 2026-05-06 03:03 | 47.39689 | 2.67309 | 37839 ft | 467 kts | 324° |
| 2026-05-06 03:04 | 47.45101 | 2.62030 | 37823 ft | 466 kts | 324° |
| 2026-05-06 03:04 | 47.50496 | 2.56765 | 37826 ft | 464 kts | 324° |
| 2026-05-06 03:05 | 47.55868 | 2.51513 | 37822 ft | 462 kts | 324° |
| 2026-05-06 03:05 | 47.61204 | 2.46256 | 37831 ft | 460 kts | 324° |
| 2026-05-06 03:06 | 47.66529 | 2.41003 | 37818 ft | 459 kts | 324° |
| 2026-05-06 03:06 | 47.71844 | 2.35772 | 37817 ft | 458 kts | 325° |
| 2026-05-06 03:07 | 47.77133 | 2.30530 | 37824 ft | 457 kts | 324° |
| 2026-05-06 03:07 | 47.82412 | 2.25275 | 37840 ft | 456 kts | 324° |
| 2026-05-06 03:08 | 47.87695 | 2.20019 | 37837 ft | 457 kts | 324° |
| 2026-05-06 03:08 | 47.92990 | 2.14764 | 37827 ft | 458 kts | 325° |
| 2026-05-06 03:09 | 47.98254 | 2.09522 | 37835 ft | 458 kts | 325° |
| 2026-05-06 03:09 | 48.03542 | 2.04178 | 37844 ft | 460 kts | 324° |
| 2026-05-06 03:10 | 48.08880 | 1.98889 | 37824 ft | 461 kts | 326° |
| 2026-05-06 03:10 | 48.14184 | 1.93481 | 37832 ft | 461 kts | 324° |
| 2026-05-06 03:11 | 48.19502 | 1.88076 | 37836 ft | 463 kts | 324° |
| 2026-05-06 03:11 | 48.24845 | 1.82674 | 37840 ft | 464 kts | 324° |
| 2026-05-06 03:12 | 48.30206 | 1.77274 | 37843 ft | 465 kts | 324° |
| 2026-05-06 03:12 | 48.35560 | 1.71827 | 37852 ft | 465 kts | 324° |
| 2026-05-06 03:13 | 48.40908 | 1.66351 | 37846 ft | 465 kts | 324° |
| 2026-05-06 03:13 | 48.46251 | 1.60892 | 37856 ft | 464 kts | 325° |
| 2026-05-06 03:14 | 48.51584 | 1.55426 | 37856 ft | 463 kts | 326° |
| 2026-05-06 03:14 | 48.56900 | 1.49970 | 37860 ft | 461 kts | 324° |
| 2026-05-06 03:15 | 48.62186 | 1.44499 | 37854 ft | 460 kts | 325° |
| 2026-05-06 03:15 | 48.67475 | 1.39100 | 37871 ft | 458 kts | 325° |
| 2026-05-06 03:16 | 48.72721 | 1.33662 | 37879 ft | 457 kts | 324° |
| 2026-05-06 03:16 | 48.77927 | 1.28154 | 37894 ft | 456 kts | 324° |
| 2026-05-06 03:17 | 48.83121 | 1.22732 | 37870 ft | 456 kts | 325° |
| 2026-05-06 03:17 | 48.88352 | 1.17326 | 37877 ft | 454 kts | 326° |
| 2026-05-06 03:18 | 48.93568 | 1.11911 | 37882 ft | 453 kts | 325° |
| 2026-05-06 03:18 | 48.98743 | 1.06452 | 37891 ft | 453 kts | 325° |
| 2026-05-06 03:19 | 49.03911 | 1.00955 | 37884 ft | 453 kts | 324° |
| 2026-05-06 03:19 | 49.09088 | 0.95490 | 37886 ft | 453 kts | 325° |
| 2026-05-06 03:20 | 49.16872 | 0.87305 | 37910 ft | 453 kts | 325° |
| 2026-05-06 03:20 | 49.22050 | 0.81796 | 37906 ft | 454 kts | 324° |
| 2026-05-06 03:21 | 49.27222 | 0.76229 | 37909 ft | 455 kts | 324° |
| 2026-05-06 03:21 | 49.32437 | 0.70698 | 37914 ft | 457 kts | 324° |
| 2026-05-06 03:22 | 49.37654 | 0.65110 | 37910 ft | 458 kts | 324° |
| 2026-05-06 03:22 | 49.42876 | 0.59495 | 37911 ft | 459 kts | 324° |
| 2026-05-06 03:23 | 49.48112 | 0.53858 | 37910 ft | 460 kts | 324° |
| 2026-05-06 03:23 | 49.53366 | 0.48225 | 37920 ft | 460 kts | 325° |
| 2026-05-06 03:24 | 49.58612 | 0.42580 | 37907 ft | 458 kts | 325° |
| 2026-05-06 03:24 | 49.63769 | 0.36977 | 37898 ft | 449 kts | 325° |
| 2026-05-06 03:25 | 49.68844 | 0.31420 | 37920 ft | 446 kts | 324° |
| 2026-05-06 03:25 | 49.73862 | 0.25907 | 37917 ft | 445 kts | 324° |
| 2026-05-06 03:26 | 49.78923 | 0.20387 | 37919 ft | 445 kts | 324° |
| 2026-05-06 03:26 | 49.83992 | 0.14889 | 37930 ft | 445 kts | 324° |
| 2026-05-06 03:27 | 49.89049 | 0.09327 | 37939 ft | 446 kts | 323° |
| 2026-05-06 03:27 | 49.94095 | 0.03693 | 37941 ft | 448 kts | 323° |
| 2026-05-06 03:28 | 49.99200 | -0.01910 | 37947 ft | 450 kts | 324° |
| 2026-05-06 03:28 | 50.04319 | -0.07533 | 37941 ft | 452 kts | 324° |
| 2026-05-06 03:29 | 50.09442 | -0.13223 | 37937 ft | 453 kts | 323° |
| 2026-05-06 03:29 | 50.14561 | -0.18965 | 37941 ft | 454 kts | 324° |
| 2026-05-06 03:30 | 50.19702 | -0.24685 | 37946 ft | 454 kts | 324° |
| 2026-05-06 03:30 | 50.24839 | -0.30433 | 37942 ft | 454 kts | 323° |
| 2026-05-06 03:31 | 50.29967 | -0.36199 | 37942 ft | 454 kts | 324° |
| 2026-05-06 03:31 | 50.35089 | -0.41944 | 37948 ft | 453 kts | 324° |
| 2026-05-06 03:32 | 50.40170 | -0.47756 | 37950 ft | 452 kts | 323° |
| 2026-05-06 03:32 | 50.45256 | -0.53523 | 37955 ft | 451 kts | 323° |
| 2026-05-06 03:33 | 50.50311 | -0.59218 | 37954 ft | 450 kts | 324° |
| 2026-05-06 03:33 | 50.55389 | -0.64938 | 37961 ft | 448 kts | 324° |
| 2026-05-06 03:34 | 50.59590 | -0.69818 | 37955 ft | 448 kts | 322° |
| 2026-05-06 03:34 | 50.65439 | -0.76514 | 37967 ft | 447 kts | 323° |
| 2026-05-06 03:35 | 50.69658 | -0.81318 | 37966 ft | 446 kts | 322° |
| 2026-05-06 03:35 | 50.74671 | -0.87090 | 37955 ft | 446 kts | 323° |
| 2026-05-06 03:36 | 50.79668 | -0.92785 | 37966 ft | 446 kts | 322° |
| 2026-05-06 03:36 | 50.84663 | -0.98605 | 37966 ft | 446 kts | 322° |
| 2026-05-06 03:37 | 50.89662 | -1.04426 | 37972 ft | 446 kts | 322° |
| 2026-05-06 03:37 | 50.94673 | -1.10258 | 37974 ft | 447 kts | 322° |
| 2026-05-06 03:38 | 50.99705 | -1.16085 | 37971 ft | 448 kts | 322° |
| 2026-05-06 03:38 | 51.04737 | -1.21931 | 37971 ft | 448 kts | 323° |
| 2026-05-06 03:39 | 51.09762 | -1.27809 | 37972 ft | 449 kts | 322° |
| 2026-05-06 03:39 | 51.14755 | -1.33780 | 37971 ft | 449 kts | 322° |
| 2026-05-06 03:40 | 51.19781 | -1.39712 | 37974 ft | 449 kts | 322° |
| 2026-05-06 03:40 | 51.24817 | -1.45632 | 37976 ft | 450 kts | 324° |
| 2026-05-06 03:41 | 51.29860 | -1.51538 | 37972 ft | 449 kts | 322° |
| 2026-05-06 03:41 | 51.34878 | -1.57485 | 38004 ft | 448 kts | 322° |
| 2026-05-06 03:42 | 51.39874 | -1.63454 | 37986 ft | 448 kts | 322° |
| 2026-05-06 03:42 | 51.44852 | -1.69420 | 37995 ft | 446 kts | 322° |
| 2026-05-06 03:43 | 51.49823 | -1.75387 | 37998 ft | 446 kts | 322° |
| 2026-05-06 03:43 | 51.54776 | -1.81341 | 37991 ft | 444 kts | 322° |
| 2026-05-06 03:44 | 51.59705 | -1.87314 | 37989 ft | 443 kts | 321° |
| 2026-05-06 03:44 | 51.64629 | -1.93275 | 38018 ft | 443 kts | 322° |
| 2026-05-06 03:45 | 51.69525 | -1.99178 | 38007 ft | 442 kts | 322° |
| 2026-05-06 03:45 | 51.74433 | -2.05128 | 38015 ft | 441 kts | 322° |
| 2026-05-06 03:46 | 51.79333 | -2.11096 | 38029 ft | 441 kts | 322° |
| 2026-05-06 03:46 | 51.84216 | -2.17094 | 38014 ft | 441 kts | 321° |
| 2026-05-06 03:47 | 51.89077 | -2.23079 | 37998 ft | 430 kts | 322° |
| 2026-05-06 03:47 | 51.91425 | -2.25950 | 37996 ft | 416 kts | 321° |
| 2026-05-06 03:47 | 51.93698 | -2.28747 | 37996 ft | 407 kts | 321° |
| 2026-05-06 03:48 | 51.95934 | -2.31513 | 37670 ft | 403 kts | 321° |
| 2026-05-06 03:48 | 51.98161 | -2.34266 | 37100 ft | 403 kts | 321° |
| 2026-05-06 03:48 | 52.00393 | -2.37019 | 36558 ft | 403 kts | 321° |
| 2026-05-06 03:48 | 52.02619 | -2.39769 | 36149 ft | 400 kts | 321° |
| 2026-05-06 03:49 | 52.04827 | -2.42483 | 35828 ft | 396 kts | 322° |
| 2026-05-06 03:49 | 52.07017 | -2.45151 | 35504 ft | 392 kts | 322° |
| 2026-05-06 03:49 | 52.09181 | -2.47806 | 35153 ft | 388 kts | 322° |
| 2026-05-06 03:49 | 52.11315 | -2.50456 | 34800 ft | 385 kts | 321° |
| 2026-05-06 03:50 | 52.13431 | -2.53097 | 34443 ft | 382 kts | 321° |
| 2026-05-06 03:50 | 52.15532 | -2.55723 | 34097 ft | 379 kts | 321° |
| 2026-05-06 03:50 | 52.17616 | -2.58328 | 33719 ft | 376 kts | 321° |
| 2026-05-06 03:50 | 52.19685 | -2.60916 | 33316 ft | 374 kts | 321° |
| 2026-05-06 03:51 | 52.21740 | -2.63488 | 32924 ft | 371 kts | 321° |
| 2026-05-06 03:51 | 52.23782 | -2.66046 | 32544 ft | 369 kts | 321° |
| 2026-05-06 03:51 | 52.25802 | -2.68599 | 32188 ft | 366 kts | 320° |
| 2026-05-06 03:51 | 52.27803 | -2.71155 | 31843 ft | 364 kts | 320° |
| 2026-05-06 03:52 | 52.29796 | -2.73670 | 31483 ft | 361 kts | 320° |
| 2026-05-06 03:52 | 52.31782 | -2.76164 | 31127 ft | 359 kts | 321° |
| 2026-05-06 03:52 | 52.33759 | -2.78644 | 30772 ft | 357 kts | 321° |
| 2026-05-06 03:52 | 52.35733 | -2.81125 | 30094 ft | 361 kts | 321° |
| 2026-05-06 03:53 | 52.37770 | -2.83689 | 28583 ft | 379 kts | 321° |
| 2026-05-06 03:53 | 52.39907 | -2.86356 | 27427 ft | 390 kts | 321° |
| 2026-05-06 03:53 | 52.42065 | -2.89073 | 26887 ft | 390 kts | 321° |
| 2026-05-06 03:53 | 52.44192 | -2.91767 | 26622 ft | 383 kts | 320° |
| 2026-05-06 03:54 | 52.46275 | -2.94434 | 26276 ft | 378 kts | 320° |
| 2026-05-06 03:54 | 52.48341 | -2.97069 | 25803 ft | 374 kts | 320° |
| 2026-05-06 03:54 | 52.50389 | -2.99675 | 25225 ft | 371 kts | 320° |
| 2026-05-06 03:54 | 52.52424 | -3.02261 | 24670 ft | 369 kts | 320° |
| 2026-05-06 03:55 | 52.54418 | -3.04795 | 24138 ft | 366 kts | 320° |
| 2026-05-06 03:55 | 52.56447 | -3.07384 | 23604 ft | 363 kts | 320° |
| 2026-05-06 03:55 | 52.58437 | -3.09918 | 22991 ft | 360 kts | 320° |
| 2026-05-06 03:55 | 52.60377 | -3.12404 | 22449 ft | 359 kts | 320° |
| 2026-05-06 03:56 | 52.62339 | -3.14924 | 22007 ft | 357 kts | 320° |
| 2026-05-06 03:56 | 52.64294 | -3.17433 | 21580 ft | 355 kts | 320° |
| 2026-05-06 03:56 | 52.66237 | -3.19926 | 21176 ft | 353 kts | 320° |
| 2026-05-06 03:56 | 52.68166 | -3.22404 | 20776 ft | 351 kts | 320° |
| 2026-05-06 03:57 | 52.70132 | -3.24769 | 20370 ft | 350 kts | 330° |
| 2026-05-06 03:57 | 52.72464 | -3.25907 | 20009 ft | 352 kts | 352° |
| 2026-05-06 03:57 | 52.74902 | -3.25840 | 19696 ft | 352 kts | 7° |
| 2026-05-06 03:57 | 52.77254 | -3.24745 | 19368 ft | 352 kts | 18° |
| 2026-05-06 03:58 | 52.79533 | -3.23330 | 19156 ft | 346 kts | 19° |
| 2026-05-06 03:58 | 52.81724 | -3.21951 | 19068 ft | 329 kts | 18° |
| 2026-05-06 03:58 | 52.83821 | -3.20664 | 18954 ft | 313 kts | 18° |
| 2026-05-06 03:58 | 52.85824 | -3.19452 | 18706 ft | 304 kts | 18° |
| 2026-05-06 03:59 | 52.87845 | -3.18236 | 17820 ft | 315 kts | 18° |
| 2026-05-06 03:59 | 52.89781 | -3.16470 | 17083 ft | 324 kts | 40° |
| 2026-05-06 03:59 | 52.91329 | -3.13756 | 16595 ft | 322 kts | 46° |
| 2026-05-06 03:59 | 52.92783 | -3.10958 | 16124 ft | 319 kts | 48° |
| 2026-05-06 04:00 | 52.94207 | -3.08156 | 15624 ft | 317 kts | 47° |
| 2026-05-06 04:00 | 52.95629 | -3.05365 | 15095 ft | 316 kts | 47° |
| 2026-05-06 04:00 | 52.97050 | -3.02575 | 14536 ft | 317 kts | 47° |
| 2026-05-06 04:00 | 52.98469 | -2.99780 | 13981 ft | 317 kts | 47° |
| 2026-05-06 04:01 | 52.99903 | -2.97013 | 13356 ft | 317 kts | 46° |
| 2026-05-06 04:01 | 53.01352 | -2.94238 | 12651 ft | 320 kts | 46° |
| 2026-05-06 04:01 | 53.02810 | -2.91431 | 11958 ft | 322 kts | 46° |
| 2026-05-06 04:01 | 53.04270 | -2.88605 | 11274 ft | 323 kts | 47° |
| 2026-05-06 04:02 | 53.05730 | -2.85761 | 10608 ft | 323 kts | 47° |
| 2026-05-06 04:02 | 53.07191 | -2.82921 | 9954 ft | 324 kts | 47° |
| 2026-05-06 04:02 | 53.08657 | -2.80077 | 9226 ft | 324 kts | 47° |
| 2026-05-06 04:02 | 53.10120 | -2.77241 | 8515 ft | 323 kts | 47° |
| 2026-05-06 04:03 | 53.11570 | -2.74433 | 8033 ft | 315 kts | 47° |
| 2026-05-06 04:03 | 53.12986 | -2.71694 | 7524 ft | 309 kts | 48° |
| 2026-05-06 04:03 | 53.14373 | -2.68996 | 7041 ft | 303 kts | 48° |
| 2026-05-06 04:03 | 53.15729 | -2.66351 | 6571 ft | 298 kts | 48° |
| 2026-05-06 04:04 | 53.17064 | -2.63748 | 6089 ft | 293 kts | 48° |
| 2026-05-06 04:04 | 53.18376 | -2.61190 | 5616 ft | 288 kts | 49° |
| 2026-05-06 04:04 | 53.19646 | -2.58707 | 5168 ft | 283 kts | 49° |
| 2026-05-06 04:04 | 53.20929 | -2.56195 | 4698 ft | 279 kts | 49° |
| 2026-05-06 04:05 | 53.22159 | -2.53780 | 4252 ft | 275 kts | 49° |
| 2026-05-06 04:05 | 53.23373 | -2.51290 | 3789 ft | 270 kts | 51° |
| 2026-05-06 04:05 | 53.24526 | -2.48900 | 3369 ft | 266 kts | 51° |
| 2026-05-06 04:05 | 53.25676 | -2.46530 | 3032 ft | 258 kts | 51° |
| 2026-05-06 04:06 | 53.26765 | -2.44271 | 2955 ft | 241 kts | 52° |
| 2026-05-06 04:06 | 53.27821 | -2.42079 | 2294 ft | 245 kts | 52° |
| 2026-05-06 04:06 | 53.28891 | -2.39875 | 1589 ft | 240 kts | 52° |
| 2026-05-06 04:06 | 53.29933 | -2.37765 | 1102 ft | 230 kts | 50° |
| 2026-05-06 04:07 | 53.30911 | -2.35773 | 833 ft | 214 kts | 52° |
| 2026-05-06 04:07 | 53.31838 | -2.33924 | 565 ft | 201 kts | 52° |
| 2026-05-06 04:07 | 53.32657 | -2.32125 | 304 ft | 186 kts | 51° |
| 2026-05-06 04:07 | 53.33439 | -2.30567 | 227 ft | 164 kts | 50° |
| 2026-05-06 04:08 | 53.34075 | -2.29244 | 246 ft | 113 kts | 45° |
| 2026-05-06 04:08 | 53.34377 | -2.28653 | 251 ft | 37 kts | 38° |
| 2026-05-06 04:08 | 53.34478 | -2.28554 | 255 ft | 13 kts | 24° |
| 2026-05-06 04:08 | 53.34560 | -2.28497 | 257 ft | 13 kts | 21° |
| 2026-05-06 04:09 | 53.34640 | -2.28443 | 259 ft | 12 kts | 22° |
| 2026-05-06 04:09 | 53.34716 | -2.28382 | 259 ft | 12 kts | 33° |
| 2026-05-06 04:09 | 53.34759 | -2.28294 | 259 ft | 8 kts | 57° |
| 2026-05-06 04:09 | 53.34800 | -2.28219 | 259 ft | 9 kts | 49° |
| 2026-05-06 04:10 | 53.34839 | -2.28126 | 259 ft | 10 kts | 56° |
| 2026-05-06 04:10 | 53.34888 | -2.28029 | 259 ft | 12 kts | 46° |
| 2026-05-06 04:10 | 53.34943 | -2.27924 | 258 ft | 13 kts | 50° |
| 2026-05-06 04:10 | 53.35002 | -2.27807 | 258 ft | 14 kts | 52° |
| 2026-05-06 04:11 | 53.35060 | -2.27678 | 258 ft | 14 kts | 52° |
| 2026-05-06 04:11 | 53.35119 | -2.27551 | 259 ft | 14 kts | 52° |
| 2026-05-06 04:11 | 53.35179 | -2.27423 | 258 ft | 15 kts | 50° |
| 2026-05-06 04:11 | 53.35251 | -2.27278 | 254 ft | 18 kts | 50° |
| 2026-05-06 04:12 | 53.35371 | -2.27206 | 245 ft | 22 kts | 342° |
| 2026-05-06 04:12 | 53.35497 | -2.27357 | 244 ft | 22 kts | 320° |
| 2026-05-06 04:12 | 53.35616 | -2.27520 | 244 ft | 22 kts | 321° |
| 2026-05-06 04:12 | 53.35746 | -2.27633 | 246 ft | 21 kts | 328° |
| 2026-05-06 04:13 | 53.35848 | -2.27803 | 248 ft | 20 kts | 310° |
| 2026-05-06 04:13 | 53.35978 | -2.27834 | 248 ft | 20 kts | 12° |
| 2026-05-06 04:13 | 53.36098 | -2.27878 | 248 ft | 14 kts | 4° |
| 2026-05-06 04:13 | 53.36159 | -2.27792 | 247 ft | 9 kts | 45° |
| 2026-05-06 04:14 | 53.36182 | -2.27756 | 246 ft | 0 kts | 43° |